sensor_id;sensor_type;location;lat;lon;timestamp;pressure;altitude;pressure_sealevel;temperature;humidity
59106;BME280;44891;50.204;8.132;2023-04-25T00:02:40;97598.22;;;7.70;95.30
59106;BME280;44891;50.204;8.132;2023-04-25T00:06:44;97600.81;;;7.81;93.77
59106;BME280;44891;50.204;8.132;2023-04-25T00:10:46;97594.94;;;7.74;93.69
59106;BME280;44891;50.204;8.132;2023-04-25T00:14:49;97585.50;;;7.90;95.24
59106;BME280;44891;50.204;8.132;2023-04-25T00:18:51;97590.78;;;8.07;95.99
59106;BME280;44891;50.204;8.132;2023-04-25T00:22:55;97590.69;;;8.02;96.70
59106;BME280;44891;50.204;8.132;2023-04-25T00:26:57;97601.75;;;7.92;97.69
59106;BME280;44891;50.204;8.132;2023-04-25T00:30:59;97594.00;;;7.80;99.38
59106;BME280;44891;50.204;8.132;2023-04-25T00:35:01;97592.66;;;7.95;97.87
59106;BME280;44891;50.204;8.132;2023-04-25T00:39:04;97592.72;;;7.83;95.41
59106;BME280;44891;50.204;8.132;2023-04-25T00:43:07;97592.66;;;7.95;98.85
59106;BME280;44891;50.204;8.132;2023-04-25T00:47:08;97598.44;;;7.97;100.00
59106;BME280;44891;50.204;8.132;2023-04-25T00:51:13;97588.06;;;8.02;100.00
59106;BME280;44891;50.204;8.132;2023-04-25T00:55:17;97588.16;;;8.07;100.00
59106;BME280;44891;50.204;8.132;2023-04-25T00:59:19;97587.38;;;8.06;96.39
59106;BME280;44891;50.204;8.132;2023-04-25T01:03:22;97579.03;;;7.93;98.54
59106;BME280;44891;50.204;8.132;2023-04-25T01:07:24;97578.00;;;7.94;98.17
59106;BME280;44891;50.204;8.132;2023-04-25T01:11:28;97576.97;;;7.95;97.04
59106;BME280;44891;50.204;8.132;2023-04-25T01:15:30;97580.69;;;7.82;97.59
59106;BME280;44891;50.204;8.132;2023-04-25T01:19:32;97568.56;;;7.76;98.19
59106;BME280;44891;50.204;8.132;2023-04-25T01:23:35;97566.72;;;7.76;96.85
59106;BME280;44891;50.204;8.132;2023-04-25T01:27:38;97577.38;;;7.86;97.14
59106;BME280;44891;50.204;8.132;2023-04-25T01:31:40;97569.59;;;7.75;96.08
59106;BME280;44891;50.204;8.132;2023-04-25T01:35:42;97574.03;;;7.74;95.42
59106;BME280;44891;50.204;8.132;2023-04-25T01:39:45;97576.94;;;7.78;95.18
59106;BME280;44891;50.204;8.132;2023-04-25T01:43:47;97589.56;;;7.81;93.63
59106;BME280;44891;50.204;8.132;2023-04-25T01:47:49;97587.09;;;7.74;93.42
59106;BME280;44891;50.204;8.132;2023-04-25T01:51:51;97590.63;;;7.68;93.74
59106;BME280;44891;50.204;8.132;2023-04-25T01:55:54;97583.03;;;7.67;93.80
59106;BME280;44891;50.204;8.132;2023-04-25T01:59:58;97583.97;;;7.60;93.86
59106;BME280;44891;50.204;8.132;2023-04-25T02:04:15;97584.81;;;7.49;94.85
59106;BME280;44891;50.204;8.132;2023-04-25T02:08:18;97576.03;;;7.55;94.44
59106;BME280;44891;50.204;8.132;2023-04-25T02:12:21;97576.50;;;7.52;93.80
59106;BME280;44891;50.204;8.132;2023-04-25T02:16:40;97578.09;;;7.53;93.13
59106;BME280;44891;50.204;8.132;2023-04-25T02:20:44;97584.00;;;7.49;92.59
59106;BME280;44891;50.204;8.132;2023-04-25T02:24:47;97582.13;;;7.32;95.97
59106;BME280;44891;50.204;8.132;2023-04-25T02:28:50;97583.63;;;7.28;97.26
59106;BME280;44891;50.204;8.132;2023-04-25T02:32:53;97589.53;;;7.24;96.94
59106;BME280;44891;50.204;8.132;2023-04-25T02:36:55;97590.69;;;7.28;96.53
59106;BME280;44891;50.204;8.132;2023-04-25T02:40:57;97584.47;;;7.05;97.68
59106;BME280;44891;50.204;8.132;2023-04-25T02:45:02;97588.88;;;7.17;96.76
59106;BME280;44891;50.204;8.132;2023-04-25T02:49:04;97580.53;;;7.03;96.06
59106;BME280;44891;50.204;8.132;2023-04-25T02:53:05;97585.25;;;7.06;94.31
59106;BME280;44891;50.204;8.132;2023-04-25T02:57:13;97580.28;;;6.93;93.81
59106;BME280;44891;50.204;8.132;2023-04-25T03:01:16;97576.69;;;6.82;93.09
59106;BME280;44891;50.204;8.132;2023-04-25T03:05:18;97582.34;;;6.79;93.37
59106;BME280;44891;50.204;8.132;2023-04-25T03:09:20;97601.66;;;6.66;93.74
59106;BME280;44891;50.204;8.132;2023-04-25T03:13:23;97596.22;;;6.68;94.23
59106;BME280;44891;50.204;8.132;2023-04-25T03:17:26;97592.03;;;6.55;93.88
59106;BME280;44891;50.204;8.132;2023-04-25T03:21:28;97598.81;;;6.21;95.98
59106;BME280;44891;50.204;8.132;2023-04-25T03:25:32;97594.66;;;5.90;96.35
59106;BME280;44891;50.204;8.132;2023-04-25T03:29:34;97602.69;;;5.88;97.14
59106;BME280;44891;50.204;8.132;2023-04-25T03:33:39;97601.47;;;5.91;96.29
59106;BME280;44891;50.204;8.132;2023-04-25T03:37:41;97594.38;;;5.80;96.93
59106;BME280;44891;50.204;8.132;2023-04-25T03:41:47;97595.34;;;5.67;98.07
59106;BME280;44891;50.204;8.132;2023-04-25T03:45:49;97593.72;;;5.54;98.95
59106;BME280;44891;50.204;8.132;2023-04-25T03:49:56;97588.31;;;5.56;97.44
59106;BME280;44891;50.204;8.132;2023-04-25T03:53:58;97599.00;;;5.17;98.55
59106;BME280;44891;50.204;8.132;2023-04-25T03:58:27;97604.44;;;4.98;99.38
59106;BME280;44891;50.204;8.132;2023-04-25T04:02:29;97611.44;;;4.97;97.54
59106;BME280;44891;50.204;8.132;2023-04-25T04:06:34;97613.88;;;4.92;97.80
59106;BME280;44891;50.204;8.132;2023-04-25T04:10:48;97621.03;;;5.15;95.78
59106;BME280;44891;50.204;8.132;2023-04-25T04:14:50;97626.13;;;5.28;94.67
59106;BME280;44891;50.204;8.132;2023-04-25T04:18:52;97631.03;;;5.18;94.94
59106;BME280;44891;50.204;8.132;2023-04-25T04:22:55;97630.31;;;5.29;94.64
59106;BME280;44891;50.204;8.132;2023-04-25T04:26:58;97643.91;;;5.31;93.98
59106;BME280;44891;50.204;8.132;2023-04-25T04:31:07;97644.25;;;5.35;95.02
59106;BME280;44891;50.204;8.132;2023-04-25T04:35:10;97648.72;;;5.28;96.17
59106;BME280;44891;50.204;8.132;2023-04-25T04:39:14;97644.38;;;5.40;95.62
59106;BME280;44891;50.204;8.132;2023-04-25T04:43:28;97639.84;;;5.35;97.67
59106;BME280;44891;50.204;8.132;2023-04-25T04:47:50;97648.44;;;5.36;96.05
59106;BME280;44891;50.204;8.132;2023-04-25T04:52:07;97647.78;;;5.40;95.90
59106;BME280;44891;50.204;8.132;2023-04-25T04:56:36;97651.78;;;5.43;95.58
59106;BME280;44891;50.204;8.132;2023-04-25T05:00:57;97654.59;;;5.41;94.88
59106;BME280;44891;50.204;8.132;2023-04-25T05:05:27;97665.84;;;5.54;94.77
59106;BME280;44891;50.204;8.132;2023-04-25T05:10:04;97672.00;;;5.59;95.27
59106;BME280;44891;50.204;8.132;2023-04-25T05:14:18;97672.72;;;5.66;93.44
59106;BME280;44891;50.204;8.132;2023-04-25T05:18:44;97680.00;;;5.76;93.96
59106;BME280;44891;50.204;8.132;2023-04-25T05:23:01;97638.03;;;5.36;96.71
59106;BME280;44891;50.204;8.132;2023-04-25T05:27:25;97685.53;;;5.68;96.95
59106;BME280;44891;50.204;8.132;2023-04-25T05:31:41;97675.38;;;5.78;95.23
59106;BME280;44891;50.204;8.132;2023-04-25T05:35:48;97672.44;;;5.86;94.59
59106;BME280;44891;50.204;8.132;2023-04-25T05:39:50;97667.56;;;5.96;94.92
59106;BME280;44891;50.204;8.132;2023-04-25T05:44:12;97669.13;;;5.97;94.48
59106;BME280;44891;50.204;8.132;2023-04-25T05:48:20;97677.13;;;6.14;94.05
59106;BME280;44891;50.204;8.132;2023-04-25T05:52:32;97677.84;;;6.33;93.31
59106;BME280;44891;50.204;8.132;2023-04-25T05:56:45;97680.38;;;6.51;92.74
59106;BME280;44891;50.204;8.132;2023-04-25T06:00:47;97639.63;;;6.39;90.99
59106;BME280;44891;50.204;8.132;2023-04-25T06:04:50;97685.16;;;6.90;90.72
59106;BME280;44891;50.204;8.132;2023-04-25T06:08:52;97685.63;;;7.10;88.23
59106;BME280;44891;50.204;8.132;2023-04-25T06:12:55;97683.56;;;7.24;87.42
59106;BME280;44891;50.204;8.132;2023-04-25T06:16:58;97690.94;;;7.27;87.19
59106;BME280;44891;50.204;8.132;2023-04-25T06:21:02;97693.56;;;7.27;88.15
59106;BME280;44891;50.204;8.132;2023-04-25T06:25:05;97697.88;;;7.21;86.11
59106;BME280;44891;50.204;8.132;2023-04-25T06:29:08;97706.50;;;7.22;83.82
59106;BME280;44891;50.204;8.132;2023-04-25T06:33:10;97711.16;;;7.20;85.97
59106;BME280;44891;50.204;8.132;2023-04-25T06:37:15;97708.44;;;7.03;85.38
59106;BME280;44891;50.204;8.132;2023-04-25T06:41:17;97710.59;;;6.94;86.40
59106;BME280;44891;50.204;8.132;2023-04-25T06:45:19;97706.06;;;7.01;83.98
59106;BME280;44891;50.204;8.132;2023-04-25T06:49:21;97720.00;;;7.30;83.96
59106;BME280;44891;50.204;8.132;2023-04-25T06:53:24;97718.53;;;7.46;84.85
59106;BME280;44891;50.204;8.132;2023-04-25T06:57:32;97721.13;;;7.46;82.33
59106;BME280;44891;50.204;8.132;2023-04-25T07:01:48;97735.06;;;7.52;82.95
59106;BME280;44891;50.204;8.132;2023-04-25T07:05:54;97727.09;;;7.70;83.71
59106;BME280;44891;50.204;8.132;2023-04-25T07:09:58;97738.91;;;7.73;81.72
59106;BME280;44891;50.204;8.132;2023-04-25T07:14:00;97742.19;;;7.80;82.13
59106;BME280;44891;50.204;8.132;2023-04-25T07:18:03;97742.66;;;7.65;79.96
59106;BME280;44891;50.204;8.132;2023-04-25T07:22:05;97742.19;;;7.80;81.71
59106;BME280;44891;50.204;8.132;2023-04-25T07:26:09;97745.91;;;7.84;81.76
59106;BME280;44891;50.204;8.132;2023-04-25T07:30:18;97754.22;;;7.93;81.13
59106;BME280;44891;50.204;8.132;2023-04-25T07:34:19;97753.69;;;8.07;79.00
59106;BME280;44891;50.204;8.132;2023-04-25T07:38:21;97754.50;;;8.08;78.67
59106;BME280;44891;50.204;8.132;2023-04-25T07:42:25;97759.53;;;8.26;76.67
59106;BME280;44891;50.204;8.132;2023-04-25T07:46:27;97756.22;;;8.31;75.52
59106;BME280;44891;50.204;8.132;2023-04-25T07:50:29;97767.94;;;8.40;75.96
59106;BME280;44891;50.204;8.132;2023-04-25T07:54:32;97764.13;;;8.19;76.41
59106;BME280;44891;50.204;8.132;2023-04-25T07:58:41;97768.59;;;8.07;73.66
59106;BME280;44891;50.204;8.132;2023-04-25T08:02:45;97779.03;;;7.67;75.27
59106;BME280;44891;50.204;8.132;2023-04-25T08:06:51;97780.25;;;7.76;78.68
59106;BME280;44891;50.204;8.132;2023-04-25T08:10:57;97784.31;;;7.95;77.19
59106;BME280;44891;50.204;8.132;2023-04-25T08:15:03;97793.06;;;8.01;76.55
59106;BME280;44891;50.204;8.132;2023-04-25T08:19:09;97803.16;;;8.49;76.03
59106;BME280;44891;50.204;8.132;2023-04-25T08:23:11;97804.72;;;8.79;72.67
59106;BME280;44891;50.204;8.132;2023-04-25T08:27:34;97808.63;;;8.48;71.75
59106;BME280;44891;50.204;8.132;2023-04-25T08:31:37;97813.81;;;8.59;71.94
59106;BME280;44891;50.204;8.132;2023-04-25T08:35:42;97818.69;;;8.56;69.78
59106;BME280;44891;50.204;8.132;2023-04-25T08:39:44;97817.81;;;8.50;71.17
59106;BME280;44891;50.204;8.132;2023-04-25T08:44:06;97822.16;;;8.73;71.39
59106;BME280;44891;50.204;8.132;2023-04-25T08:48:11;97817.97;;;8.89;68.71
59106;BME280;44891;50.204;8.132;2023-04-25T08:52:13;97820.13;;;9.09;67.43
59106;BME280;44891;50.204;8.132;2023-04-25T08:56:16;97833.38;;;9.36;65.36
59106;BME280;44891;50.204;8.132;2023-04-25T09:00:20;97839.34;;;9.48;65.10
59106;BME280;44891;50.204;8.132;2023-04-25T09:04:25;97843.88;;;9.36;62.74
59106;BME280;44891;50.204;8.132;2023-04-25T09:08:29;97847.13;;;9.09;63.78
59106;BME280;44891;50.204;8.132;2023-04-25T09:12:31;97849.72;;;8.92;66.32
59106;BME280;44891;50.204;8.132;2023-04-25T09:16:33;97852.31;;;8.47;68.10
59106;BME280;44891;50.204;8.132;2023-04-25T09:21:08;97855.81;;;8.53;67.80
59106;BME280;44891;50.204;8.132;2023-04-25T09:25:10;97863.84;;;8.63;67.28
59106;BME280;44891;50.204;8.132;2023-04-25T09:29:14;97865.28;;;8.99;66.78
59106;BME280;44891;50.204;8.132;2023-04-25T09:33:16;97869.34;;;9.57;65.64
59106;BME280;44891;50.204;8.132;2023-04-25T09:37:24;97877.09;;;9.86;63.03
59106;BME280;44891;50.204;8.132;2023-04-25T09:41:45;97871.03;;;10.02;62.38
59106;BME280;44891;50.204;8.132;2023-04-25T09:45:47;97873.63;;;9.80;60.69
59106;BME280;44891;50.204;8.132;2023-04-25T09:49:51;97877.19;;;9.57;61.44
59106;BME280;44891;50.204;8.132;2023-04-25T09:53:56;97876.44;;;9.95;59.51
59106;BME280;44891;50.204;8.132;2023-04-25T09:58:09;97876.59;;;10.05;58.95
59106;BME280;44891;50.204;8.132;2023-04-25T10:02:13;97887.59;;;9.86;60.60
59106;BME280;44891;50.204;8.132;2023-04-25T10:06:18;97891.34;;;9.73;58.68
59106;BME280;44891;50.204;8.132;2023-04-25T10:10:22;97897.88;;;9.53;59.22
59106;BME280;44891;50.204;8.132;2023-04-25T10:14:26;97909.06;;;9.32;61.23
59106;BME280;44891;50.204;8.132;2023-04-25T10:18:28;97915.31;;;9.14;61.33
59106;BME280;44891;50.204;8.132;2023-04-25T10:22:32;97913.38;;;9.10;59.98
59106;BME280;44891;50.204;8.132;2023-04-25T10:26:37;97921.53;;;8.96;60.67
59106;BME280;44891;50.204;8.132;2023-04-25T10:30:44;97929.91;;;8.82;60.52
59106;BME280;44891;50.204;8.132;2023-04-25T10:34:58;97929.94;;;8.70;60.95
59106;BME280;44891;50.204;8.132;2023-04-25T10:39:11;97937.66;;;8.77;62.12
59106;BME280;44891;50.204;8.132;2023-04-25T10:47:42;97928.94;;;8.99;61.67
59106;BME280;44891;50.204;8.132;2023-04-25T10:51:45;97928.66;;;9.30;59.21
59106;BME280;44891;50.204;8.132;2023-04-25T10:55:49;97925.50;;;9.61;57.25
59106;BME280;44891;50.204;8.132;2023-04-25T10:59:52;97936.75;;;10.12;56.43
59106;BME280;44891;50.204;8.132;2023-04-25T11:03:58;97941.31;;;10.00;56.52
59106;BME280;44891;50.204;8.132;2023-04-25T11:08:00;97931.59;;;10.00;56.62
59106;BME280;44891;50.204;8.132;2023-04-25T11:12:02;97939.56;;;10.05;55.92
59106;BME280;44891;50.204;8.132;2023-04-25T11:16:06;97939.69;;;10.32;56.55
59106;BME280;44891;50.204;8.132;2023-04-25T11:20:10;97939.41;;;10.51;55.19
59106;BME280;44891;50.204;8.132;2023-04-25T11:24:14;97946.84;;;10.59;54.60
59106;BME280;44891;50.204;8.132;2023-04-25T11:28:20;97945.00;;;10.81;52.38
59106;BME280;44891;50.204;8.132;2023-04-25T11:32:23;97956.16;;;11.48;51.18
59106;BME280;44891;50.204;8.132;2023-04-25T11:36:26;97958.06;;;11.25;49.96
59106;BME280;44891;50.204;8.132;2023-04-25T11:40:28;97949.34;;;10.71;51.22
59106;BME280;44891;50.204;8.132;2023-04-25T11:44:31;97959.72;;;10.39;52.02
59106;BME280;44891;50.204;8.132;2023-04-25T11:48:36;97953.06;;;10.31;52.87
59106;BME280;44891;50.204;8.132;2023-04-25T11:52:40;97959.41;;;10.35;52.75
59106;BME280;44891;50.204;8.132;2023-04-25T11:56:42;97955.94;;;9.96;54.05
59106;BME280;44891;50.204;8.132;2023-04-25T12:00:44;97963.25;;;9.94;54.34
59106;BME280;44891;50.204;8.132;2023-04-25T12:04:46;97963.97;;;9.56;55.81
59106;BME280;44891;50.204;8.132;2023-04-25T12:09:02;97974.63;;;9.66;56.37
59106;BME280;44891;50.204;8.132;2023-04-25T12:13:17;97972.31;;;9.69;56.31
59106;BME280;44891;50.204;8.132;2023-04-25T12:17:19;97967.84;;;10.03;56.49
59106;BME280;44891;50.204;8.132;2023-04-25T12:21:21;97970.56;;;11.13;53.01
59106;BME280;44891;50.204;8.132;2023-04-25T12:25:36;97974.03;;;11.46;51.32
59106;BME280;44891;50.204;8.132;2023-04-25T12:29:38;97973.38;;;11.33;51.05
59106;BME280;44891;50.204;8.132;2023-04-25T12:33:40;97983.22;;;10.94;50.87
59106;BME280;44891;50.204;8.132;2023-04-25T12:37:43;97983.66;;;10.86;51.24
59106;BME280;44891;50.204;8.132;2023-04-25T12:41:46;97994.22;;;10.69;52.09
59106;BME280;44891;50.204;8.132;2023-04-25T12:45:49;97993.22;;;10.70;51.38
59106;BME280;44891;50.204;8.132;2023-04-25T12:49:51;97996.84;;;10.69;52.03
59106;BME280;44891;50.204;8.132;2023-04-25T12:53:53;97994.78;;;10.71;51.86
59106;BME280;44891;50.204;8.132;2023-04-25T12:57:56;97989.41;;;10.61;52.13
59106;BME280;44891;50.204;8.132;2023-04-25T13:01:58;98000.25;;;10.48;51.26
59106;BME280;44891;50.204;8.132;2023-04-25T13:06:00;97995.66;;;10.21;52.19
59106;BME280;44891;50.204;8.132;2023-04-25T13:10:02;98003.69;;;10.15;51.95
59106;BME280;44891;50.204;8.132;2023-04-25T13:14:05;97987.63;;;10.88;49.45
59106;BME280;44891;50.204;8.132;2023-04-25T13:18:07;97921.16;;;10.88;48.43
59106;BME280;44891;50.204;8.132;2023-04-25T13:22:09;97994.44;;;10.84;47.83
59106;BME280;44891;50.204;8.132;2023-04-25T13:26:11;98000.34;;;10.75;49.12
59106;BME280;44891;50.204;8.132;2023-04-25T13:30:14;97995.63;;;10.55;49.13
59106;BME280;44891;50.204;8.132;2023-04-25T13:34:16;98003.78;;;10.37;48.53
59106;BME280;44891;50.204;8.132;2023-04-25T13:38:18;97992.63;;;10.46;47.95
59106;BME280;44891;50.204;8.132;2023-04-25T13:42:20;98012.16;;;11.43;46.70
59106;BME280;44891;50.204;8.132;2023-04-25T13:46:23;98020.16;;;12.55;45.22
59106;BME280;44891;50.204;8.132;2023-04-25T13:50:25;98021.69;;;12.50;43.97
59106;BME280;44891;50.204;8.132;2023-04-25T13:54:27;98008.41;;;12.83;45.10
59106;BME280;44891;50.204;8.132;2023-04-25T13:58:28;98010.53;;;11.96;46.54
59106;BME280;44891;50.204;8.132;2023-04-25T14:02:31;98008.53;;;11.49;48.16
59106;BME280;44891;50.204;8.132;2023-04-25T14:06:33;98013.41;;;11.40;48.64
59106;BME280;44891;50.204;8.132;2023-04-25T14:10:36;98025.16;;;11.06;48.40
59106;BME280;44891;50.204;8.132;2023-04-25T14:14:38;98026.19;;;11.05;48.27
59106;BME280;44891;50.204;8.132;2023-04-25T14:18:41;98032.53;;;10.65;49.06
59106;BME280;44891;50.204;8.132;2023-04-25T14:22:43;98042.59;;;10.51;49.54
59106;BME280;44891;50.204;8.132;2023-04-25T14:26:45;98045.38;;;10.28;50.69
59106;BME280;44891;50.204;8.132;2023-04-25T14:30:47;98044.16;;;10.02;52.96
59106;BME280;44891;50.204;8.132;2023-04-25T14:34:50;98039.44;;;10.32;53.33
59106;BME280;44891;50.204;8.132;2023-04-25T14:38:52;98040.75;;;11.39;51.17
59106;BME280;44891;50.204;8.132;2023-04-25T14:42:54;98040.44;;;12.59;48.35
59106;BME280;44891;50.204;8.132;2023-04-25T14:46:56;98046.59;;;12.80;47.39
59106;BME280;44891;50.204;8.132;2023-04-25T14:50:59;98043.47;;;12.36;47.38
59106;BME280;44891;50.204;8.132;2023-04-25T14:55:01;98052.88;;;12.27;45.59
59106;BME280;44891;50.204;8.132;2023-04-25T14:59:05;98054.63;;;11.84;45.13
59106;BME280;44891;50.204;8.132;2023-04-25T15:03:07;98052.84;;;11.89;46.02
59106;BME280;44891;50.204;8.132;2023-04-25T15:07:11;98047.19;;;11.76;44.60
59106;BME280;44891;50.204;8.132;2023-04-25T15:11:13;98056.06;;;11.42;45.57
59106;BME280;44891;50.204;8.132;2023-04-25T15:15:15;98048.94;;;11.16;45.13
59106;BME280;44891;50.204;8.132;2023-04-25T15:19:16;98038.09;;;11.88;43.38
59106;BME280;44891;50.204;8.132;2023-04-25T15:23:20;98043.34;;;12.20;43.60
59106;BME280;44891;50.204;8.132;2023-04-25T15:27:22;98044.03;;;12.06;42.62
59106;BME280;44891;50.204;8.132;2023-04-25T15:31:24;98046.91;;;12.04;43.42
59106;BME280;44891;50.204;8.132;2023-04-25T15:35:26;98046.63;;;12.85;42.88
59106;BME280;44891;50.204;8.132;2023-04-25T15:39:29;98048.16;;;12.29;41.48
59106;BME280;44891;50.204;8.132;2023-04-25T15:43:31;98050.09;;;11.79;43.29
59106;BME280;44891;50.204;8.132;2023-04-25T15:47:36;98045.50;;;11.64;44.37
59106;BME280;44891;50.204;8.132;2023-04-25T15:51:39;98053.63;;;11.14;45.05
59106;BME280;44891;50.204;8.132;2023-04-25T15:55:42;98051.81;;;11.41;44.36
59106;BME280;44891;50.204;8.132;2023-04-25T15:59:44;98056.78;;;11.38;45.19
59106;BME280;44891;50.204;8.132;2023-04-25T16:03:46;98057.22;;;11.30;45.12
59106;BME280;44891;50.204;8.132;2023-04-25T16:07:48;98060.81;;;11.46;45.49
59106;BME280;44891;50.204;8.132;2023-04-25T16:11:51;98059.44;;;11.16;45.74
59106;BME280;44891;50.204;8.132;2023-04-25T16:15:53;98065.91;;;11.08;47.26
59106;BME280;44891;50.204;8.132;2023-04-25T16:19:55;98065.81;;;10.81;46.90
59106;BME280;44891;50.204;8.132;2023-04-25T16:23:57;98063.19;;;10.59;47.46
59106;BME280;44891;50.204;8.132;2023-04-25T16:28:00;98070.84;;;10.44;48.73
59106;BME280;44891;50.204;8.132;2023-04-25T16:32:02;98074.56;;;10.48;48.64
59106;BME280;44891;50.204;8.132;2023-04-25T16:36:05;98079.25;;;10.46;48.75
59106;BME280;44891;50.204;8.132;2023-04-25T16:40:07;98085.38;;;10.35;49.15
59106;BME280;44891;50.204;8.132;2023-04-25T16:44:10;98089.22;;;10.27;49.76
59106;BME280;44891;50.204;8.132;2023-04-25T16:48:13;98088.25;;;10.33;50.20
59106;BME280;44891;50.204;8.132;2023-04-25T16:52:15;98088.44;;;10.44;48.76
59106;BME280;44891;50.204;8.132;2023-04-25T16:56:17;98079.97;;;10.58;47.38
59106;BME280;44891;50.204;8.132;2023-04-25T17:00:20;98086.56;;;10.61;46.70
59106;BME280;44891;50.204;8.132;2023-04-25T17:04:22;98084.91;;;10.55;46.38
59106;BME280;44891;50.204;8.132;2023-04-25T17:08:24;98091.44;;;10.35;46.34
59106;BME280;44891;50.204;8.132;2023-04-25T17:12:27;98094.19;;;10.12;45.81
59106;BME280;44891;50.204;8.132;2023-04-25T17:16:34;98101.88;;;10.30;45.07
59106;BME280;44891;50.204;8.132;2023-04-25T17:20:37;98056.41;;;10.13;45.31
59106;BME280;44891;50.204;8.132;2023-04-25T17:24:38;98110.69;;;10.58;45.61
59106;BME280;44891;50.204;8.132;2023-04-25T17:28:40;98117.81;;;10.62;45.70
59106;BME280;44891;50.204;8.132;2023-04-25T17:32:49;98123.91;;;10.46;44.77
59106;BME280;44891;50.204;8.132;2023-04-25T17:36:51;98116.94;;;10.23;44.66
59106;BME280;44891;50.204;8.132;2023-04-25T17:40:54;98130.84;;;10.07;46.12
59106;BME280;44891;50.204;8.132;2023-04-25T17:44:56;98133.50;;;9.78;46.87
59106;BME280;44891;50.204;8.132;2023-04-25T17:48:59;98133.19;;;9.63;47.22
59106;BME280;44891;50.204;8.132;2023-04-25T17:53:01;98139.19;;;9.47;47.12
59106;BME280;44891;50.204;8.132;2023-04-25T17:57:03;98141.81;;;9.35;47.91
59106;BME280;44891;50.204;8.132;2023-04-25T18:01:05;98140.25;;;9.22;48.65
59106;BME280;44891;50.204;8.132;2023-04-25T18:05:08;98146.75;;;9.20;48.66
59106;BME280;44891;50.204;8.132;2023-04-25T18:09:10;98145.53;;;8.99;49.46
59106;BME280;44891;50.204;8.132;2023-04-25T18:13:16;98151.44;;;8.83;50.18
59106;BME280;44891;50.204;8.132;2023-04-25T18:17:18;98160.44;;;8.75;50.41
59106;BME280;44891;50.204;8.132;2023-04-25T18:21:25;98169.31;;;8.62;51.05
59106;BME280;44891;50.204;8.132;2023-04-25T18:25:28;98171.00;;;8.57;52.17
59106;BME280;44891;50.204;8.132;2023-04-25T18:29:29;98176.47;;;8.55;54.01
59106;BME280;44891;50.204;8.132;2023-04-25T18:33:31;98179.84;;;8.32;56.18
59106;BME280;44891;50.204;8.132;2023-04-25T18:37:34;98189.81;;;8.24;57.93
59106;BME280;44891;50.204;8.132;2023-04-25T18:41:36;98197.31;;;8.32;58.57
59106;BME280;44891;50.204;8.132;2023-04-25T18:45:38;98193.91;;;8.31;58.21
59106;BME280;44891;50.204;8.132;2023-04-25T18:49:40;98185.34;;;8.12;58.06
59106;BME280;44891;50.204;8.132;2023-04-25T18:53:44;98198.63;;;7.81;59.64
59106;BME280;44891;50.204;8.132;2023-04-25T18:57:46;98212.44;;;7.51;60.83
59106;BME280;44891;50.204;8.132;2023-04-25T19:01:48;98207.34;;;7.75;62.27
59106;BME280;44891;50.204;8.132;2023-04-25T19:05:51;98223.34;;;7.67;62.73
59106;BME280;44891;50.204;8.132;2023-04-25T19:09:54;98226.50;;;7.32;63.05
59106;BME280;44891;50.204;8.132;2023-04-25T19:13:56;98230.59;;;7.46;62.49
59106;BME280;44891;50.204;8.132;2023-04-25T19:17:58;98230.09;;;7.56;63.64
59106;BME280;44891;50.204;8.132;2023-04-25T19:22:00;98237.19;;;7.49;64.86
59106;BME280;44891;50.204;8.132;2023-04-25T19:26:03;98235.34;;;7.31;66.45
59106;BME280;44891;50.204;8.132;2023-04-25T19:30:06;98249.50;;;7.23;66.85
59106;BME280;44891;50.204;8.132;2023-04-25T19:34:11;98247.91;;;7.22;67.09
59106;BME280;44891;50.204;8.132;2023-04-25T19:38:13;98255.22;;;7.14;67.23
59106;BME280;44891;50.204;8.132;2023-04-25T19:42:17;98250.47;;;7.04;67.42
59106;BME280;44891;50.204;8.132;2023-04-25T19:46:19;98247.81;;;6.29;68.29
59106;BME280;44891;50.204;8.132;2023-04-25T19:50:21;98245.75;;;5.93;69.69
59106;BME280;44891;50.204;8.132;2023-04-25T19:54:23;98249.44;;;5.65;70.01
59106;BME280;44891;50.204;8.132;2023-04-25T19:58:26;98259.59;;;5.93;70.17
59106;BME280;44891;50.204;8.132;2023-04-25T20:02:29;98258.69;;;5.68;70.51
59106;BME280;44891;50.204;8.132;2023-04-25T20:06:31;98260.53;;;5.34;72.44
59106;BME280;44891;50.204;8.132;2023-04-25T20:10:33;98268.13;;;5.49;72.50
59106;BME280;44891;50.204;8.132;2023-04-25T20:14:36;98274.97;;;5.30;72.97
59106;BME280;44891;50.204;8.132;2023-04-25T20:18:38;98286.38;;;5.36;73.37
59106;BME280;44891;50.204;8.132;2023-04-25T20:22:41;98272.97;;;5.32;73.04
59106;BME280;44891;50.204;8.132;2023-04-25T20:26:43;98273.97;;;5.25;73.37
59106;BME280;44891;50.204;8.132;2023-04-25T20:30:46;98281.34;;;5.34;73.44
59106;BME280;44891;50.204;8.132;2023-04-25T20:34:48;98282.00;;;5.16;74.13
59106;BME280;44891;50.204;8.132;2023-04-25T20:38:50;98286.56;;;5.34;73.43
59106;BME280;44891;50.204;8.132;2023-04-25T20:42:52;98296.19;;;5.40;72.78
59106;BME280;44891;50.204;8.132;2023-04-25T20:46:57;98292.78;;;5.13;73.75
59106;BME280;44891;50.204;8.132;2023-04-25T20:50:58;98291.63;;;5.23;74.04
59106;BME280;44891;50.204;8.132;2023-04-25T20:55:01;98287.00;;;5.31;73.17
59106;BME280;44891;50.204;8.132;2023-04-25T20:59:03;98287.00;;;5.31;73.50
59106;BME280;44891;50.204;8.132;2023-04-25T21:03:06;98286.41;;;5.23;73.45
59106;BME280;44891;50.204;8.132;2023-04-25T21:07:08;98289.41;;;5.06;73.71
59106;BME280;44891;50.204;8.132;2023-04-25T21:11:12;98288.00;;;4.97;74.26
59106;BME280;44891;50.204;8.132;2023-04-25T21:15:14;98291.78;;;4.81;75.42
59106;BME280;44891;50.204;8.132;2023-04-25T21:19:18;98296.81;;;4.76;75.39
59106;BME280;44891;50.204;8.132;2023-04-25T21:23:20;98292.00;;;4.86;75.44
59106;BME280;44891;50.204;8.132;2023-04-25T21:27:22;98297.19;;;4.86;75.34
59106;BME280;44891;50.204;8.132;2023-04-25T21:31:24;98300.00;;;4.91;75.47
59106;BME280;44891;50.204;8.132;2023-04-25T21:35:27;98293.00;;;4.99;74.75
59106;BME280;44891;50.204;8.132;2023-04-25T21:39:29;98292.56;;;4.62;76.25
59106;BME280;44891;50.204;8.132;2023-04-25T21:43:31;98291.38;;;4.64;76.25
59106;BME280;44891;50.204;8.132;2023-04-25T21:47:33;98290.38;;;4.59;76.76
59106;BME280;44891;50.204;8.132;2023-04-25T21:51:36;98296.94;;;4.55;77.45